Time;durP1;ratioP1;P1;durP2;ratioP2;P2;SDS_P1;SDS_P2;PMS_P1;PMS_P2;Temp;Humidity;BMP_temperature;BMP_pressure;BME280_temperature;BME280_humidity;BME280_pressure;Samples;Min_cycle;Max_cycle;Signal;HPM_P1;HPM_P2
2021/08/24 00:00:37;;;;;;;2.00;1.90;;;15.10;99.90;;;;;;5035826;28;20505;-80
2021/08/24 00:03:03;;;;;;;3.27;2.20;;;15.10;99.90;;;;;;5036314;28;20486;-79
2021/08/24 00:05:32;;;;;;;2.43;1.87;;;15.00;99.90;;;;;;5035639;28;20522;-81
2021/08/24 00:07:58;;;;;;;1.97;1.77;;;15.10;99.90;;;;;;5035265;28;20485;-81
2021/08/24 00:10:26;;;;;;;4.60;1.60;;;15.00;99.90;;;;;;5035208;28;21005;-80
2021/08/24 00:12:54;;;;;;;4.03;2.00;;;14.90;99.90;;;;;;5034476;28;20447;-80
2021/08/24 00:15:22;;;;;;;3.20;1.80;;;14.80;99.90;;;;;;5035876;28;20466;-80
2021/08/24 00:17:49;;;;;;;2.50;1.53;;;14.80;99.90;;;;;;5035182;28;20500;-77
2021/08/24 00:20:16;;;;;;;3.97;2.10;;;14.70;99.90;;;;;;5035533;28;20513;-78
2021/08/24 00:22:43;;;;;;;3.43;1.70;;;14.60;99.90;;;;;;5035039;28;20481;-80
2021/08/24 00:25:12;;;;;;;2.97;1.40;;;14.60;99.90;;;;;;5036022;28;20846;-79
2021/08/24 00:27:39;;;;;;;2.87;1.63;;;14.60;99.90;;;;;;5035652;28;20558;-80
2021/08/24 00:30:08;;;;;;;2.73;1.90;;;14.60;99.90;;;;;;5036284;28;20532;-79
2021/08/24 00:32:36;;;;;;;1.80;1.70;;;14.60;99.90;;;;;;5037212;28;20447;-78
2021/08/24 00:35:03;;;;;;;2.90;2.00;;;14.50;99.90;;;;;;5036615;28;20483;-81
2021/08/24 00:37:29;;;;;;;3.80;1.87;;;14.50;99.90;;;;;;5036082;28;20442;-81
2021/08/24 00:39:56;;;;;;;6.03;2.87;;;14.40;99.90;;;;;;5035638;28;20497;-81
2021/08/24 00:42:23;;;;;;;6.03;2.00;;;14.30;99.90;;;;;;5035831;28;20505;-81
2021/08/24 00:44:49;;;;;;;1.70;1.43;;;14.30;99.90;;;;;;5040870;28;20471;-79
2021/08/24 00:47:17;;;;;;;2.23;2.03;;;14.30;99.90;;;;;;5042851;28;20443;-79
2021/08/24 00:49:47;;;;;;;3.10;2.30;;;14.20;99.90;;;;;;5043690;28;20490;-79
2021/08/24 00:52:16;;;;;;;5.93;1.97;;;14.20;99.90;;;;;;5038654;28;20451;-80
2021/08/24 00:54:44;;;;;;;4.00;2.07;;;13.90;99.90;;;;;;5047200;28;20447;-80
2021/08/24 00:57:14;;;;;;;4.80;2.23;;;14.20;99.90;;;;;;5035501;28;20866;-79
2021/08/24 00:59:40;;;;;;;1.60;1.50;;;14.10;99.90;;;;;;5035038;28;20462;-80
2021/08/24 01:02:08;;;;;;;2.57;2.20;;;14.10;99.90;;;;;;5017284;28;20447;-80
2021/08/24 01:04:37;;;;;;;3.03;2.23;;;14.00;99.90;;;;;;5034635;28;20480;-80
2021/08/24 01:07:09;;;;;;;3.80;2.23;;;14.00;99.90;;;;;;5035376;28;20509;-79
2021/08/24 01:09:46;;;;;;;5.13;2.30;;;14.00;99.90;;;;;;5034678;28;20540;-80
2021/08/24 01:12:25;;;;;;;1.63;1.53;;;13.90;99.90;;;;;;5034616;28;20964;-80
2021/08/24 01:15:02;;;;;;;3.63;1.90;;;13.80;99.90;;;;;;5038031;28;20470;-80
2021/08/24 01:17:36;;;;;;;1.93;1.73;;;13.90;99.90;;;;;;5035391;28;20485;-80
2021/08/24 01:20:45;;;;;;;2.80;2.00;;;13.80;99.90;;;;;;5036867;28;20463;-80
2021/08/24 01:23:37;;;;;;;2.57;2.20;;;13.80;99.90;;;;;;5041898;28;20482;-79
2021/08/24 01:26:09;;;;;;;3.97;1.90;;;13.60;99.90;;;;;;5046514;28;20463;-79
2021/08/24 01:28:59;;;;;;;2.97;2.00;;;13.70;99.90;;;;;;5046632;28;20462;-80
2021/08/24 01:31:52;;;;;;;3.87;2.57;;;13.70;99.90;;;;;;5043861;28;20536;-81
2021/08/24 01:34:30;;;;;;;2.60;2.30;;;13.70;99.90;;;;;;5046237;28;20482;-80
2021/08/24 01:37:02;;;;;;;2.80;2.50;;;13.70;99.90;;;;;;5045999;28;20431;-79
2021/08/24 01:39:35;;;;;;;2.30;1.77;;;13.70;99.90;;;;;;5047109;28;20440;-80
2021/08/24 01:42:13;;;;;;;3.33;2.00;;;13.70;99.90;;;;;;5045181;28;20480;-78
2021/08/24 01:44:48;;;;;;;2.60;1.60;;;13.70;99.90;;;;;;5045003;28;20436;-79
2021/08/24 01:47:22;;;;;;;3.70;3.33;;;13.60;99.90;;;;;;5044564;28;20434;-79
2021/08/24 01:49:56;;;;;;;6.40;2.03;;;13.60;99.90;;;;;;5042899;28;20503;-79
2021/08/24 01:52:31;;;;;;;3.67;1.90;;;13.60;99.90;;;;;;5045225;28;20476;-80
2021/08/24 01:55:02;;;;;;;3.97;2.20;;;13.60;99.90;;;;;;5044406;28;20475;-79
2021/08/24 01:57:38;;;;;;;4.03;2.13;;;13.50;99.90;;;;;;5045961;28;20481;-79
2021/08/24 02:00:09;;;;;;;2.83;2.20;;;13.50;99.90;;;;;;5045261;28;20431;-79
2021/08/24 02:02:40;;;;;;;6.57;2.47;;;13.50;99.90;;;;;;5045800;28;20481;-79
2021/08/24 02:05:12;;;;;;;3.83;2.27;;;13.50;99.90;;;;;;5043682;28;20453;-80
2021/08/24 02:07:41;;;;;;;2.10;2.00;;;13.40;99.90;;;;;;5038639;28;20438;-80
2021/08/24 02:10:13;;;;;;;4.93;2.00;;;13.40;99.90;;;;;;5038384;28;20514;-79
2021/08/24 02:12:42;;;;;;;5.43;2.20;;;13.40;99.90;;;;;;5045624;28;20462;-80
2021/08/24 02:15:10;;;;;;;3.23;1.97;;;13.30;99.90;;;;;;5037931;28;20499;-80
2021/08/24 02:17:42;;;;;;;8.17;2.53;;;13.30;99.90;;;;;;5037570;28;20447;-80
2021/08/24 02:20:14;;;;;;;4.40;2.00;;;13.30;99.90;;;;;;5037550;28;20806;-80
2021/08/24 02:22:45;;;;;;;7.13;2.63;;;13.30;99.90;;;;;;5044830;28;20417;-81
2021/08/24 02:25:16;;;;;;;4.90;2.50;;;13.30;99.90;;;;;;5043995;28;20525;-78
2021/08/24 02:27:46;;;;;;;6.13;2.47;;;13.30;99.90;;;;;;5040692;28;20874;-79
2021/08/24 02:30:13;;;;;;;5.57;2.10;;;13.20;99.90;;;;;;5048297;28;20953;-78
2021/08/24 02:32:45;;;;;;;3.10;2.30;;;13.30;99.90;;;;;;5049730;28;20972;-78
2021/08/24 02:35:22;;;;;;;4.27;2.47;;;13.30;99.90;;;;;;5045420;28;20478;-79
2021/08/24 02:37:54;;;;;;;3.73;2.30;;;13.30;99.90;;;;;;5045454;28;20439;-79
2021/08/24 02:40:28;;;;;;;4.43;2.27;;;13.20;99.90;;;;;;5042446;28;20471;-80
2021/08/24 02:42:58;;;;;;;7.10;2.30;;;13.30;99.90;;;;;;5038802;28;20431;-79
2021/08/24 02:45:32;;;;;;;5.33;2.10;;;13.20;99.90;;;;;;5039057;28;20471;-79
2021/08/24 02:48:00;;;;;;;3.10;2.37;;;13.20;99.90;;;;;;5038125;28;20447;-78
2021/08/24 02:50:26;;;;;;;5.13;1.87;;;13.20;99.90;;;;;;5037192;28;20481;-79
2021/08/24 02:52:55;;;;;;;5.37;2.10;;;13.20;99.90;;;;;;5037680;28;20458;-80
2021/08/24 02:55:22;;;;;;;3.83;2.07;;;13.10;99.90;;;;;;5037088;28;20906;-78
2021/08/24 02:57:49;;;;;;;4.40;2.23;;;13.20;99.90;;;;;;5037454;28;20530;-79
2021/08/24 03:00:16;;;;;;;3.27;2.40;;;13.20;99.90;;;;;;5037712;28;20541;-80
2021/08/24 03:02:42;;;;;;;3.77;2.03;;;13.20;99.90;;;;;;5037333;28;20458;-79
2021/08/24 03:05:10;;;;;;;3.00;2.07;;;13.10;99.90;;;;;;5036547;28;20824;-79
2021/08/24 03:07:39;;;;;;;3.87;2.13;;;13.10;99.90;;;;;;5036438;28;20447;-80
2021/08/24 03:10:13;;;;;;;8.40;2.17;;;13.10;99.90;;;;;;5036611;28;20451;-79
2021/08/24 03:12:44;;;;;;;5.40;2.37;;;13.20;99.90;;;;;;5037388;28;20438;-79
2021/08/24 03:15:16;;;;;;;5.00;2.10;;;13.10;99.90;;;;;;5036647;28;20505;-78
2021/08/24 03:17:48;;;;;;;4.30;2.20;;;12.80;99.90;;;;;;5037271;28;20467;-80
2021/08/24 03:20:17;;;;;;;4.17;2.57;;;13.00;99.90;;;;;;5036103;28;20471;-80
2021/08/24 03:22:46;;;;;;;7.27;2.90;;;13.10;99.90;;;;;;5036585;28;20447;-79
2021/08/24 03:25:16;;;;;;;6.93;2.37;;;13.00;99.90;;;;;;5036164;28;20493;-80
2021/08/24 03:27:44;;;;;;;3.83;2.30;;;12.90;99.90;;;;;;5036825;28;20482;-80
2021/08/24 03:30:15;;;;;;;5.17;2.57;;;12.90;99.90;;;;;;5037112;28;20444;-80
2021/08/24 03:32:43;;;;;;;5.07;3.53;;;12.90;99.90;;;;;;5036940;28;20917;-80
2021/08/24 03:35:11;;;;;;;6.20;2.43;;;12.90;99.90;;;;;;5056306;22;20555;-78
2021/08/24 03:37:38;;;;;;;3.63;2.60;;;12.80;99.90;;;;;;5019719;28;20452;-79
2021/08/24 03:40:07;;;;;;;5.57;3.30;;;12.70;99.90;;;;;;5029732;28;20476;-79
2021/08/24 03:42:36;;;;;;;6.50;1.83;;;12.70;99.90;;;;;;5015516;28;20847;-78
2021/08/24 03:45:03;;;;;;;4.37;2.37;;;12.80;99.90;;;;;;5016610;28;20942;-78
2021/08/24 03:47:29;;;;;;;7.33;3.30;;;12.70;99.90;;;;;;5035568;28;20498;-79
2021/08/24 03:49:56;;;;;;;4.37;2.43;;;12.70;99.90;;;;;;5035520;28;20451;-79
2021/08/24 03:52:23;;;;;;;3.97;2.40;;;12.70;99.90;;;;;;5035313;28;20534;-78
2021/08/24 03:54:49;;;;;;;4.37;2.20;;;12.80;99.90;;;;;;5035027;28;20486;-79
2021/08/24 03:57:16;;;;;;;4.47;1.90;;;12.70;99.90;;;;;;5034953;28;20483;-79
2021/08/24 03:59:44;;;;;;;4.87;1.90;;;12.70;99.90;;;;;;5034520;28;20494;-79
2021/08/24 04:02:10;;;;;;;4.20;3.40;;;12.80;99.90;;;;;;5035591;28;20486;-78
2021/08/24 04:04:37;;;;;;;5.70;2.70;;;12.70;99.90;;;;;;5034597;28;20482;-78
2021/08/24 04:07:04;;;;;;;3.90;2.13;;;12.80;99.90;;;;;;5035019;28;20485;-79
2021/08/24 04:09:31;;;;;;;4.30;2.30;;;12.70;99.90;;;;;;5034882;28;20446;-79
2021/08/24 04:11:57;;;;;;;4.10;2.70;;;12.80;99.90;;;;;;5039648;28;20446;-77
2021/08/24 04:14:24;;;;;;;3.27;2.60;;;12.80;99.90;;;;;;5038607;28;20452;-77
2021/08/24 04:16:52;;;;;;;3.13;2.10;;;12.80;99.90;;;;;;5038073;28;20467;-77
2021/08/24 04:19:18;;;;;;;5.60;3.40;;;12.70;99.90;;;;;;5038939;28;20482;-77
2021/08/24 04:21:45;;;;;;;5.83;2.97;;;12.70;99.90;;;;;;5039400;28;20988;-77
2021/08/24 04:24:12;;;;;;;4.03;2.50;;;12.80;99.90;;;;;;5039875;28;20443;-77
2021/08/24 04:26:39;;;;;;;3.93;2.93;;;12.70;99.90;;;;;;5039919;28;20489;-77
2021/08/24 04:29:06;;;;;;;4.10;2.43;;;12.80;99.90;;;;;;5039821;28;20486;-77
2021/08/24 04:31:36;;;;;;;6.63;2.63;;;12.70;99.90;;;;;;5038133;28;20497;-77
2021/08/24 04:34:04;;;;;;;4.20;2.53;;;12.80;99.90;;;;;;5033467;28;20431;-77
2021/08/24 04:36:30;;;;;;;10.10;2.27;;;12.80;99.90;;;;;;5032253;28;20483;-78
2021/08/24 04:38:57;;;;;;;2.97;2.60;;;12.80;99.90;;;;;;5033599;28;20937;-77
2021/08/24 04:41:24;;;;;;;3.43;2.73;;;12.70;99.90;;;;;;5033266;28;20529;-77
2021/08/24 04:43:51;;;;;;;6.20;2.53;;;12.90;99.90;;;;;;5032517;28;20451;-77
2021/08/24 04:46:17;;;;;;;2.80;1.90;;;12.80;99.90;;;;;;5032604;28;20559;-77
2021/08/24 04:48:44;;;;;;;5.23;3.37;;;12.80;99.90;;;;;;5032508;28;20563;-77
2021/08/24 04:51:12;;;;;;;3.70;2.07;;;12.80;99.90;;;;;;5033147;28;20439;-77
2021/08/24 04:53:38;;;;;;;2.40;2.10;;;12.90;99.90;;;;;;5033908;28;20811;-77
2021/08/24 04:56:05;;;;;;;6.63;2.40;;;12.90;99.90;;;;;;5039908;28;20814;-77
2021/08/24 04:58:31;;;;;;;3.07;2.23;;;13.00;99.90;;;;;;5041097;28;20791;-76
2021/08/24 05:00:58;;;;;;;6.07;2.10;;;13.10;99.90;;;;;;5042823;28;20533;-78
2021/08/24 05:03:24;;;;;;;4.47;2.70;;;13.00;99.90;;;;;;5038032;28;20540;-77
2021/08/24 05:05:51;;;;;;;2.30;2.10;;;13.10;99.90;;;;;;5043670;28;20470;-78
2021/08/24 05:08:19;;;;;;;4.07;2.70;;;13.00;99.90;;;;;;5043608;28;20490;-78
2021/08/24 05:10:45;;;;;;;4.50;2.80;;;13.10;99.90;;;;;;5037810;28;20541;-77
2021/08/24 05:13:12;;;;;;;2.80;1.93;;;13.30;99.90;;;;;;5036208;28;20566;-77
2021/08/24 05:15:38;;;;;;;4.37;2.60;;;13.20;99.90;;;;;;5036031;28;20498;-77
2021/08/24 05:18:06;;;;;;;5.00;2.50;;;13.20;99.90;;;;;;5036122;28;20573;-77
2021/08/24 05:20:32;;;;;;;3.70;2.60;;;13.30;99.90;;;;;;5036152;28;20443;-76
2021/08/24 05:22:59;;;;;;;4.40;2.40;;;13.40;99.90;;;;;;5036034;28;20525;-77
2021/08/24 05:25:27;;;;;;;5.83;2.47;;;13.40;99.90;;;;;;5035895;28;20490;-77
2021/08/24 05:27:55;;;;;;;3.37;2.30;;;13.50;99.90;;;;;;5036048;28;20455;-77
2021/08/24 05:30:24;;;;;;;3.20;1.60;;;13.50;99.90;;;;;;5037195;28;20501;-77
2021/08/24 05:32:52;;;;;;;3.03;2.73;;;13.60;99.90;;;;;;5037561;28;20587;-78
2021/08/24 05:35:20;;;;;;;4.77;2.83;;;13.70;99.90;;;;;;5037236;28;20478;-77
2021/08/24 05:37:47;;;;;;;4.23;2.43;;;13.70;99.90;;;;;;5037016;28;20431;-78
2021/08/24 05:40:13;;;;;;;11.00;3.03;;;13.70;99.90;;;;;;5036896;28;20486;-78
2021/08/24 05:42:42;;;;;;;3.13;2.17;;;13.70;99.90;;;;;;5037028;28;21012;-78
2021/08/24 05:45:10;;;;;;;4.10;2.10;;;13.70;99.90;;;;;;5036330;28;21052;-78
2021/08/24 05:47:37;;;;;;;3.30;2.30;;;13.80;99.90;;;;;;5036726;28;20497;-78
2021/08/24 05:50:04;;;;;;;6.20;2.23;;;13.80;99.90;;;;;;5036588;28;20490;-78
2021/08/24 05:52:31;;;;;;;3.97;2.63;;;13.90;99.90;;;;;;5036752;28;20583;-78
2021/08/24 05:54:58;;;;;;;4.73;1.80;;;14.00;99.90;;;;;;5036752;28;20518;-78
2021/08/24 05:57:24;;;;;;;2.90;2.50;;;14.00;99.90;;;;;;5042023;28;20454;-77
2021/08/24 05:59:52;;;;;;;3.60;2.20;;;14.10;99.90;;;;;;5043001;28;20973;-77
2021/08/24 06:02:18;;;;;;;5.30;2.30;;;14.10;99.90;;;;;;5044383;28;20556;-77
2021/08/24 06:04:45;;;;;;;4.77;2.17;;;14.20;99.90;;;;;;5038326;28;20898;-76
2021/08/24 06:07:12;;;;;;;3.83;2.23;;;14.20;99.90;;;;;;5037617;28;20815;-77
2021/08/24 06:09:39;;;;;;;1.90;1.80;;;14.30;99.90;;;;;;5037324;28;21011;-77
2021/08/24 06:12:07;;;;;;;9.07;2.50;;;14.40;99.90;;;;;;5044269;28;20493;-76
2021/08/24 06:14:33;;;;;;;6.10;2.47;;;14.40;99.90;;;;;;5035605;28;20443;-77
2021/08/24 06:17:01;;;;;;;4.33;2.90;;;14.50;99.90;;;;;;5036863;28;20501;-77
2021/08/24 06:19:29;;;;;;;4.33;2.40;;;14.50;99.90;;;;;;5038805;28;20491;-76
2021/08/24 06:21:58;;;;;;;2.60;2.40;;;14.50;99.90;;;;;;5037221;28;20475;-79
2021/08/24 06:24:25;;;;;;;2.63;2.43;;;14.50;99.90;;;;;;5037166;28;20474;-78
2021/08/24 06:26:53;;;;;;;4.43;2.97;;;14.60;99.90;;;;;;5038413;28;20888;-78
2021/08/24 06:29:20;;;;;;;2.37;1.73;;;15.20;99.90;;;;;;5043601;28;20506;-78
2021/08/24 06:31:49;;;;;;;2.73;2.27;;;14.70;99.90;;;;;;5047268;28;20443;-78
2021/08/24 06:34:18;;;;;;;8.57;2.30;;;14.80;99.90;;;;;;5045011;28;20809;-78
2021/08/24 06:36:45;;;;;;;7.97;1.90;;;14.90;99.90;;;;;;5044267;28;20518;-79
2021/08/24 06:39:13;;;;;;;1.90;1.70;;;14.90;99.90;;;;;;5041101;28;20505;-78
2021/08/24 06:41:40;;;;;;;3.80;2.53;;;15.00;99.90;;;;;;5045294;28;20533;-77
2021/08/24 06:44:09;;;;;;;8.07;2.20;;;15.10;99.90;;;;;;5048325;28;20445;-77
2021/08/24 06:46:36;;;;;;;5.53;2.03;;;15.20;99.90;;;;;;5044324;28;20520;-77
2021/08/24 06:49:03;;;;;;;4.70;2.37;;;15.20;99.90;;;;;;5042537;28;20451;-78
2021/08/24 06:51:31;;;;;;;5.80;1.80;;;15.30;99.90;;;;;;5041801;28;20439;-77
2021/08/24 06:53:57;;;;;;;4.53;2.20;;;15.30;99.90;;;;;;5041107;28;20458;-79
2021/08/24 06:56:24;;;;;;;5.20;1.90;;;15.40;99.90;;;;;;5038342;28;20847;-78
2021/08/24 06:58:51;;;;;;;4.53;2.13;;;15.50;99.90;;;;;;5036306;28;20817;-78
2021/08/24 07:01:20;;;;;;;2.27;1.90;;;15.60;99.90;;;;;;5036132;28;20545;-77
2021/08/24 07:03:47;;;;;;;2.70;2.33;;;15.60;99.90;;;;;;5036572;28;20479;-78
2021/08/24 07:06:14;;;;;;;2.90;2.20;;;15.50;99.90;;;;;;5036742;28;20775;-78
2021/08/24 07:08:44;;;;;;;3.67;1.80;;;15.60;99.90;;;;;;5036803;28;20504;-78
2021/08/24 07:11:12;;;;;;;3.83;1.60;;;15.70;99.90;;;;;;5037021;28;20493;-78
2021/08/24 07:13:40;;;;;;;10.13;2.17;;;15.80;99.90;;;;;;5041694;28;20527;-77
2021/08/24 07:16:08;;;;;;;3.70;3.40;;;15.80;99.90;;;;;;5039173;28;20467;-78
2021/08/24 07:18:35;;;;;;;2.03;1.83;;;15.80;99.90;;;;;;5039836;28;20904;-77
2021/08/24 07:21:02;;;;;;;4.03;1.90;;;15.90;99.90;;;;;;5034823;28;20890;-77
2021/08/24 07:23:29;;;;;;;2.30;1.63;;;15.90;99.90;;;;;;5035264;28;20451;-78
2021/08/24 07:25:57;;;;;;;1.60;1.50;;;16.00;99.90;;;;;;5035933;28;20517;-77
2021/08/24 07:28:24;;;;;;;2.03;1.80;;;16.10;99.90;;;;;;5037538;28;20942;-78
2021/08/24 07:30:52;;;;;;;2.17;1.70;;;16.10;99.90;;;;;;5041641;28;20458;-77
2021/08/24 07:33:19;;;;;;;3.23;1.80;;;16.20;99.90;;;;;;5043722;28;20446;-78
2021/08/24 07:35:47;;;;;;;2.47;1.90;;;16.20;99.90;;;;;;5049218;28;20478;-78
2021/08/24 07:38:15;;;;;;;3.40;1.80;;;16.20;99.90;;;;;;5039480;28;20465;-78
2021/08/24 07:40:42;;;;;;;2.63;1.50;;;16.20;99.90;;;;;;5038590;28;20447;-78
2021/08/24 07:43:10;;;;;;;1.63;1.53;;;16.40;99.90;;;;;;5035964;28;20525;-78
2021/08/24 07:45:37;;;;;;;4.47;2.10;;;16.50;99.90;;;;;;5035257;28;20874;-78
2021/08/24 07:48:04;;;;;;;2.60;1.20;;;16.50;99.90;;;;;;5035364;28;20458;-78
2021/08/24 07:50:30;;;;;;;3.37;2.00;;;16.60;99.90;;;;;;5034189;28;20916;-78
2021/08/24 07:52:57;;;;;;;4.17;1.70;;;16.60;99.90;;;;;;5039602;28;20443;-77
2021/08/24 07:55:24;;;;;;;4.60;1.80;;;16.50;99.90;;;;;;5040866;28;20467;-77
2021/08/24 07:57:50;;;;;;;3.83;1.87;;;16.60;99.90;;;;;;5037577;28;20469;-78
2021/08/24 08:00:19;;;;;;;4.53;2.00;;;16.70;99.90;;;;;;5035023;28;20521;-78
2021/08/24 08:02:45;;;;;;;5.23;2.40;;;16.70;99.90;;;;;;5034830;28;20502;-78
2021/08/24 08:05:13;;;;;;;2.70;1.50;;;16.80;99.90;;;;;;5035358;28;20510;-76
2021/08/24 08:07:39;;;;;;;2.40;1.93;;;16.90;99.90;;;;;;5034615;28;20478;-78
2021/08/24 08:10:07;;;;;;;2.10;1.90;;;17.00;99.90;;;;;;5033943;28;20875;-78
2021/08/24 08:12:34;;;;;;;2.40;1.97;;;17.00;99.90;;;;;;5033718;28;20474;-78
2021/08/24 08:15:01;;;;;;;4.10;1.60;;;17.00;99.90;;;;;;5034221;28;20450;-78
2021/08/24 08:17:29;;;;;;;2.30;1.97;;;17.10;99.90;;;;;;5034831;28;20455;-78
2021/08/24 08:19:55;;;;;;;10.37;2.30;;;17.20;99.90;;;;;;5034303;28;20458;-77
2021/08/24 08:22:22;;;;;;;4.10;2.50;;;17.50;99.90;;;;;;5033333;28;20518;-76
2021/08/24 08:24:49;;;;;;;2.10;1.67;;;17.30;99.90;;;;;;5033058;28;20474;-77
2021/08/24 08:27:16;;;;;;;3.43;2.03;;;17.30;99.90;;;;;;5033991;28;20454;-77
2021/08/24 08:29:42;;;;;;;2.93;1.50;;;17.40;99.90;;;;;;5034606;28;20447;-77
2021/08/24 08:32:12;;;;;;;2.70;2.03;;;17.40;99.90;;;;;;5035746;28;20470;-78
2021/08/24 08:34:40;;;;;;;2.10;1.83;;;17.40;99.90;;;;;;5037636;28;20459;-77
2021/08/24 08:37:07;;;;;;;2.67;1.80;;;17.40;99.90;;;;;;5037927;28;20510;-77
2021/08/24 08:39:34;;;;;;;4.83;2.03;;;17.50;99.90;;;;;;5038719;28;20545;-77
2021/08/24 08:42:28;;;;;;;2.00;1.57;;;17.50;99.90;;;;;;5039680;28;20605;-77
2021/08/24 08:45:00;;;;;;;2.73;1.90;;;17.80;99.90;;;;;;5038542;28;20462;-77
2021/08/24 08:47:40;;;;;;;1.60;1.50;;;17.60;99.90;;;;;;5045951;28;20443;-78
2021/08/24 08:50:22;;;;;;;2.63;1.50;;;17.70;99.90;;;;;;5037909;28;20466;-78
2021/08/24 08:52:56;;;;;;;2.60;2.13;;;17.70;99.90;;;;;;5037519;28;20427;-77
2021/08/24 08:55:31;;;;;;;3.03;1.40;;;17.80;99.90;;;;;;5037745;28;20487;-77
2021/08/24 08:58:03;;;;;;;1.77;1.50;;;17.70;99.90;;;;;;5037950;28;20469;-77
2021/08/24 09:00:45;;;;;;;4.70;1.60;;;17.80;99.90;;;;;;5037460;28;20462;-78
2021/08/24 09:03:17;;;;;;;2.90;2.23;;;17.80;99.90;;;;;;5040588;28;20857;-77
2021/08/24 09:05:47;;;;;;;2.70;1.60;;;17.90;99.90;;;;;;5043694;28;20509;-77
2021/08/24 09:08:16;;;;;;;1.70;1.60;;;18.00;99.90;;;;;;5042629;28;20977;-77
2021/08/24 09:10:45;;;;;;;2.00;1.40;;;18.00;99.90;;;;;;5039962;28;20546;-77
2021/08/24 09:13:17;;;;;;;6.03;1.90;;;17.90;99.90;;;;;;5038399;28;20451;-77
2021/08/24 09:15:48;;;;;;;2.07;1.70;;;18.00;99.90;;;;;;5037041;28;20506;-77
2021/08/24 09:18:19;;;;;;;1.73;1.63;;;18.00;99.90;;;;;;5037284;28;20431;-77
2021/08/24 09:20:59;;;;;;;1.63;1.53;;;18.10;99.90;;;;;;5036758;28;20492;-77
2021/08/24 09:23:26;;;;;;;2.80;1.67;;;18.20;99.90;;;;;;5037805;28;20798;-77
2021/08/24 09:26:11;;;;;;;1.70;1.60;;;18.30;99.90;;;;;;5036835;28;20513;-78
2021/08/24 09:28:38;;;;;;;3.03;2.83;;;18.30;99.90;;;;;;5036765;28;20557;-77
2021/08/24 09:31:07;;;;;;;2.50;2.17;;;18.20;99.90;;;;;;5036675;28;20882;-78
2021/08/24 09:33:34;;;;;;;3.57;1.70;;;18.30;99.90;;;;;;5036609;28;20485;-78
2021/08/24 09:36:02;;;;;;;2.13;1.83;;;18.40;99.90;;;;;;5052449;22;20493;-78
2021/08/24 09:38:31;;;;;;;1.90;1.70;;;18.40;99.90;;;;;;5020166;28;20475;-78
2021/08/24 09:41:00;;;;;;;2.07;1.80;;;18.40;99.90;;;;;;5020132;28;20455;-79
2021/08/24 09:43:33;;;;;;;3.67;1.90;;;18.40;99.90;;;;;;5020095;28;20514;-77
2021/08/24 09:46:06;;;;;;;4.77;1.50;;;18.20;99.90;;;;;;5027323;28;20473;-77
2021/08/24 09:48:48;;;;;;;3.10;1.50;;;18.20;99.90;;;;;;5040126;28;20493;-79
2021/08/24 09:51:29;;;;;;;7.03;1.37;;;18.20;99.90;;;;;;5043963;28;20439;-77
2021/08/24 09:53:58;;;;;;;1.73;1.63;;;18.30;99.90;;;;;;5040348;28;20470;-79
2021/08/24 09:56:28;;;;;;;1.67;1.50;;;18.30;99.90;;;;;;5039864;28;20470;-78
2021/08/24 09:58:55;;;;;;;2.57;1.93;;;18.40;99.90;;;;;;5039953;28;20435;-79
2021/08/24 10:01:22;;;;;;;1.67;1.57;;;18.40;99.90;;;;;;5039143;28;20481;-78
2021/08/24 10:04:06;;;;;;;2.50;1.83;;;18.50;99.90;;;;;;5039666;28;20478;-78
2021/08/24 10:06:36;;;;;;;1.77;1.63;;;18.60;99.90;;;;;;5042399;28;20499;-78
2021/08/24 10:09:14;;;;;;;3.23;1.67;;;18.60;99.90;;;;;;5041228;28;20451;-79
2021/08/24 10:11:41;;;;;;;2.37;2.10;;;18.70;99.90;;;;;;5042624;28;20443;-78
2021/08/24 10:14:13;;;;;;;3.03;2.00;;;18.80;99.90;;;;;;5042147;28;20469;-78
2021/08/24 10:16:42;;;;;;;3.70;3.00;;;18.80;99.90;;;;;;5038912;28;20478;-79
2021/08/24 10:19:13;;;;;;;3.13;1.77;;;18.90;99.90;;;;;;5040880;28;20451;-79
2021/08/24 10:21:52;;;;;;;2.53;1.70;;;18.90;99.90;;;;;;5040497;28;20436;-80
2021/08/24 10:24:25;;;;;;;5.03;2.00;;;18.90;99.90;;;;;;5038591;28;20447;-80
2021/08/24 10:26:55;;;;;;;1.70;1.60;;;18.80;99.90;;;;;;5038980;28;20467;-79
2021/08/24 10:29:27;;;;;;;2.23;1.90;;;18.80;99.90;;;;;;5037697;28;21028;-78
2021/08/24 10:31:58;;;;;;;2.50;1.60;;;18.90;99.90;;;;;;5039112;28;20462;-79
2021/08/24 10:34:30;;;;;;;2.70;1.70;;;18.80;99.90;;;;;;5038277;28;20434;-80
2021/08/24 10:37:28;;;;;;;3.40;2.10;;;18.70;99.90;;;;;;5020430;28;20872;-79
2021/08/24 10:40:14;;;;;;;2.57;1.90;;;18.60;99.90;;;;;;5037919;28;20910;-79
2021/08/24 10:42:43;;;;;;;4.17;2.47;;;18.60;99.90;;;;;;5037457;28;20471;-79
2021/08/24 10:45:26;;;;;;;2.90;2.13;;;19.00;99.90;;;;;;5038866;28;20462;-79
2021/08/24 10:47:56;;;;;;;2.60;1.80;;;18.80;99.90;;;;;;5038731;28;20458;-80
2021/08/24 10:50:31;;;;;;;2.87;1.60;;;18.90;99.90;;;;;;5038313;28;20447;-80
2021/08/24 10:53:09;;;;;;;3.23;2.57;;;19.10;99.90;;;;;;5038000;28;20431;-80
2021/08/24 10:55:41;;;;;;;2.10;1.77;;;19.30;99.90;;;;;;5036588;28;20816;-80
2021/08/24 10:58:20;;;;;;;2.10;1.90;;;19.20;99.90;;;;;;5037866;28;20454;-79
2021/08/24 11:00:55;;;;;;;3.97;1.90;;;19.30;99.90;;;;;;5038488;28;20918;-78
2021/08/24 11:03:52;;;;;;;3.70;2.27;;;19.20;99.90;;;;;;5042480;28;20532;-80
2021/08/24 11:06:27;;;;;;;3.00;2.10;;;19.30;99.90;;;;;;5029830;28;20514;-77
2021/08/24 11:09:03;;;;;;;5.73;2.00;;;18.90;99.90;;;;;;5041833;28;20453;-78
2021/08/24 11:11:39;;;;;;;3.70;2.67;;;18.90;99.90;;;;;;5043512;28;20454;-78
2021/08/24 11:14:19;;;;;;;3.83;2.37;;;18.80;99.90;;;;;;5046081;28;20457;-80
2021/08/24 11:16:52;;;;;;;3.60;3.00;;;18.90;99.90;;;;;;5052219;28;20466;-79
2021/08/24 11:19:32;;;;;;;2.67;2.37;;;19.00;99.90;;;;;;5049884;28;20432;-79
2021/08/24 11:22:05;;;;;;;2.50;1.70;;;18.90;99.90;;;;;;5051119;28;20427;-79
2021/08/24 11:24:47;;;;;;;5.27;2.20;;;18.90;99.90;;;;;;5051087;28;20459;-80
2021/08/24 11:27:24;;;;;;;3.37;2.37;;;18.90;99.90;;;;;;5052491;28;20455;-78
2021/08/24 11:29:56;;;;;;;2.50;2.10;;;19.00;99.90;;;;;;5045531;28;20481;-80
2021/08/24 11:32:28;;;;;;;3.47;2.00;;;19.10;99.90;;;;;;5042176;28;20797;-78
2021/08/24 11:34:59;;;;;;;2.57;2.00;;;19.20;99.90;;;;;;5041963;28;20455;-79
2021/08/24 11:37:29;;;;;;;3.37;2.40;;;19.20;99.90;;;;;;5039317;28;20478;-79
2021/08/24 11:40:00;;;;;;;4.90;2.87;;;19.20;99.90;;;;;;5038470;28;20483;-82
2021/08/24 11:42:32;;;;;;;2.63;2.20;;;19.30;99.90;;;;;;5038645;28;20489;-79
2021/08/24 11:45:08;;;;;;;3.07;2.27;;;19.30;99.90;;;;;;5038667;28;20443;-77
2021/08/24 11:47:41;;;;;;;2.97;1.93;;;19.30;99.90;;;;;;5038889;28;20427;-78
2021/08/24 11:50:12;;;;;;;5.73;3.80;;;19.40;99.90;;;;;;5038152;28;20459;-78
2021/08/24 11:52:46;;;;;;;4.77;2.90;;;19.50;99.90;;;;;;5037052;28;20462;-79
2021/08/24 11:55:20;;;;;;;6.93;4.20;;;19.60;99.90;;;;;;5037166;28;20469;-78
2021/08/24 11:57:54;;;;;;;5.20;3.57;;;19.70;99.90;;;;;;5038546;28;20445;-78
2021/08/24 12:00:21;;;;;;;3.70;3.07;;;19.80;99.90;;;;;;5043913;28;20435;-77
2021/08/24 12:02:50;;;;;;;3.20;1.97;;;19.90;99.90;;;;;;5048706;28;20969;-77
2021/08/24 12:05:20;;;;;;;2.80;2.50;;;19.90;99.90;;;;;;5045717;28;20458;-78
2021/08/24 12:07:56;;;;;;;8.57;2.90;;;19.90;99.90;;;;;;5043709;28;20431;-79
2021/08/24 12:10:30;;;;;;;4.03;2.90;;;19.70;99.90;;;;;;5038174;28;20967;-78
2021/08/24 12:12:59;;;;;;;3.90;2.73;;;19.50;99.90;;;;;;5037356;28;20973;-79
2021/08/24 12:15:40;;;;;;;3.73;2.73;;;19.70;99.90;;;;;;5036420;28;20992;-78
2021/08/24 12:18:12;;;;;;;4.03;2.93;;;19.70;99.90;;;;;;5037086;28;20485;-78
2021/08/24 12:20:44;;;;;;;5.27;3.53;;;19.80;99.90;;;;;;5038533;28;20529;-79
2021/08/24 12:23:15;;;;;;;5.60;4.20;;;19.90;99.90;;;;;;5036376;28;20499;-78
2021/08/24 12:25:45;;;;;;;5.47;3.90;;;20.00;99.90;;;;;;5037697;28;20470;-78
2021/08/24 12:28:37;;;;;;;19.27;11.30;;;20.10;99.90;;;;;;5037178;28;20926;-78
2021/08/24 12:31:20;;;;;;;5.10;3.50;;;20.10;99.90;;;;;;5035693;28;20828;-78
2021/08/24 12:33:47;;;;;;;5.60;3.20;;;20.00;99.90;;;;;;5036355;28;20435;-80
2021/08/24 12:36:52;;;;;;;5.07;2.97;;;20.00;99.90;;;;;;5035447;28;21013;-78
2021/08/24 12:39:41;;;;;;;6.00;3.70;;;19.90;99.90;;;;;;5036066;28;20443;-78
2021/08/24 12:42:19;;;;;;;7.27;4.30;;;19.70;99.90;;;;;;5035810;28;20471;-78
2021/08/24 12:44:49;;;;;;;6.03;3.87;;;19.80;99.90;;;;;;5035916;28;20977;-78
2021/08/24 12:47:35;;;;;;;5.87;3.53;;;19.70;99.90;;;;;;5035933;28;20608;-79
2021/08/24 12:50:43;;;;;;;6.77;5.10;;;19.70;99.90;;;;;;5027403;28;20478;-78
2021/08/24 12:53:50;;;;;;;8.30;5.70;;;19.90;99.90;;;;;;5037245;28;20447;-79
2021/08/24 12:56:45;;;;;;;8.10;3.83;;;20.00;99.90;;;;;;5031119;28;20550;-78
2021/08/24 12:59:31;;;;;;;6.00;3.73;;;20.00;99.90;;;;;;5047901;28;20435;-77
2021/08/24 13:02:23;;;;;;;7.20;4.97;;;19.90;99.90;;;;;;5039318;28;20427;-78
2021/08/24 13:04:56;;;;;;;7.90;5.10;;;19.80;99.90;;;;;;5038396;28;20475;-78